Terminal Aerodrome Forecast
Issued by NWS Atlanta, GA

Current Version | Previous Version | Text Only | Print | Product List | Glossary On
Versions: 1 2 3 4 5 6 7 8 9 10 11 12 13 14 15 16 17 18 19 20 21 22 23 24 25 26
000
FTUS42 KFFC 241744
TAFCSG
TAF
KCSG 241744Z 2418/2518 12004KT 4SM -RA BKN025 OVC035
     FM241900 15004KT 4SM -RA OVC018
     FM250100 16007KT 4SM -SHRA BR BKN006 OVC015
     FM250700 21006KT 4SM -SHRA BR OVC006
     FM251400 24005KT P6SM VCSH SCT008 BKN015=

USA.gov is the U.S. government's official web portal to all federal, state and local government web resources and services.